Dzaoudzi, Comoros
Current Conditions -  °F | °C
As of 10:30 AM on Friday 24 Oct 2014 (Local Time) from FMCZ Reporting Station
Scattered Clouds Scattered Clouds  
Wind Chill: 88°   Ceiling: Unl
Heat Index: 94°   Visibility: 6mi
Dew Point: 72°   Wind: 10mph
Humidity: 58%   Direction: 70°ENE
Pressure: 29.97"   Gusts: NA
Location:  12.8°S, 45.28°E
Report Text: FMCZ 240730Z 07009KT 030V100 9999 SCT026 31/22 Q1015 NOSIG
Loading
Personal Weather Stations






























Interactive Weather Map
Tropical Storm Tracking
New forecast layout! Learn more

10-Day Weather Forecast

Advertisements
Track Severe Weather on mobile